Flight Track Log - Related Links

Times and Time Zones

All times are in EDT time to prevent confusion due to time zone crossing. See the SWA268 flight status page for this flight to view local times or setup timezone preferences in your user account.


Time Position Orientation Groundspeed Altitude Reporting Facility
EDT Latitude Longitude Course Direction KTS MPH feet Rate Location/Type
Mon 12:06:46 PM 33.6500 -117.8833 51° Northeast 130 150 1,800  Level Southern California TRACON
Mon 12:07:40 PM 33.6167 -117.8833 180° South 157 181 3,200 2,111 Climbing Southern California TRACON
Mon 12:08:34 PM 33.5667 -117.9000 196° South 216 249 5,600 2,763 Climbing Southern California TRACON
Mon 12:08:56 PM 33.5597 -117.9233 250° West 199 229 6,700 3,429 Climbing Los Angeles Center
Mon 12:09:58 PM 33.5425 -117.9956 254° West 215 247 10,400 3,048 Climbing Los Angeles Center
Mon 12:11:00 PM 33.5342 -118.0736 263° West 238 274 13,000 1,548 Climbing Los Angeles Center
Mon 12:12:00 PM 33.8255 -118.0035 51° Northeast  Level FlightAware Approximate
Mon 12:12:02 PM 33.5956 -118.0967 343° North 253 291 13,600  Level Los Angeles Center
Mon 12:13:03 PM 33.6808 -118.0756 12° North 305 351 16,800 3,171 Climbing Los Angeles Center
Mon 12:14:05 PM 33.7711 -118.0558 10° North 329 379 20,100 3,145 Climbing Los Angeles Center
Mon 12:15:07 PM 33.8783 -117.9683 34° Northeast 394 453 23,300 3,048 Climbing Los Angeles Center
Mon 12:16:09 PM 33.9658 -117.8886 37° Northeast 398 458 26,400 1,790 Climbing Los Angeles Center
Mon 12:17:11 PM 34.0533 -117.8106 36° Northeast 393 452 27,000 290 Climbing Los Angeles Center
Mon 12:18:13 PM 34.1342 -117.7122 45° Northeast 411 473 27,000  Level Los Angeles Center
Mon 12:19:15 PM 34.2086 -117.6114 48° Northeast 407 468 27,000  Level Los Angeles Center
Mon 12:20:17 PM 34.2836 -117.5106 48° Northeast 403 464 27,000  Level Los Angeles Center
Mon 12:21:18 PM 34.3603 -117.4067 48° Northeast 410 472 27,000  Level Los Angeles Center
Mon 12:22:21 PM 34.4389 -117.2975 49° Northeast 414 476 27,000 336 Level Los Angeles Center
Mon 12:23:23 PM 34.5317 -117.1700 49° Northeast 423 487 27,700 927 Climbing Los Angeles Center
Mon 12:24:24 PM 34.6197 -117.0506 48° Northeast 470 541 28,900 578 Climbing Los Angeles Center
Mon 12:25:38 PM 34.7069 -116.9281 49° Northeast 481 554 29,000 44 Climbing Los Angeles Center
Mon 12:26:41 PM 34.8081 -116.7911 48° Northeast 459 528 29,000  Level Los Angeles Center
Mon 12:27:43 PM 34.8911 -116.6739 49° Northeast 458 527 29,000 -1,171 Level Los Angeles Center
Mon 12:28:44 PM 34.9922 -116.5358 48° Northeast 458 527 26,600 -2,244 Descending Los Angeles Center
Mon 12:29:46 PM 35.0783 -116.4294 45° Northeast 450 518 24,400 -1,258 Descending Los Angeles Center
Mon 12:30:48 PM 35.1564 -116.3333 45° Northeast 412 474 24,000 -194 Descending Los Angeles Center
Mon 12:31:50 PM 35.2342 -116.2383 45° Northeast 398 458 24,000 -1,113 Level Los Angeles Center
Mon 12:32:52 PM 35.3089 -116.1408 47° Northeast 396 456 21,700 -1,984 Descending Los Angeles Center
Mon 12:33:54 PM 35.3839 -116.0433 47° Northeast 394 453 19,900 -2,081 Descending Los Angeles Center
Mon 12:34:56 PM 35.4714 -115.9350 45° Northeast 377 434 17,400 -2,325 Descending Los Angeles Center
Mon 12:35:14 PM 35.4942 -115.9044 48° Northeast 373 429 16,800 -1,355 Descending Los Angeles Center
Mon 12:35:58 PM 35.5356 -115.8556 44° Northeast 356 410 16,000 -1,377 Descending Los Angeles Center
Mon 12:36:15 PM 35.5608 -115.8228 47° Northeast 343 395 15,400 -1,475 Descending Los Angeles Center
Mon 12:36:59 PM 35.6000 -115.7736 46° Northeast 339 390 14,500 -1,475 Descending Los Angeles Center
Mon 12:37:16 PM 35.6233 -115.7419 48° Northeast 328 377 13,900 -1,452 Descending Los Angeles Center
Mon 12:38:01 PM 35.6717 -115.6783 47° Northeast 322 371 13,000 -900 Descending Los Angeles Center
Mon 12:38:16 PM 35.6717 -115.6553 90° East 319 367 13,000 -1,065 Level Los Angeles Center
Mon 12:39:03 PM 35.6853 -115.5692 79° East 317 365 11,900 -1,486 Descending Los Angeles Center
Mon 12:40:05 PM 35.7000 -115.4633 80° East 316 364 10,300 -1,403 Descending Los Angeles Center
Mon 12:41:07 PM 35.7239 -115.3642 73° East 310 357 9,000 -1,113 Descending Los Angeles Center
Mon 12:42:09 PM 35.7556 -115.2706 67° East 304 350 8,000 -488 Descending Los Angeles Center
Mon 12:43:10 PM 35.7936 -115.2003 56° Northeast 273 314 8,000  Level Los Angeles Center
Mon 12:44:12 PM 35.8394 -115.1206 55° Northeast 247 284 8,000  Level Los Angeles Center
Mon 12:45:22 PM 35.8878 -115.0469 51° Northeast 237 273 8,000  Level Los Angeles Center
Mon 12:46:22 PM 35.9258 -114.9839 53° Northeast 231 266 8,000  Level Los Angeles Center
Mon 12:47:18 PM 35.9536 -114.9325 56° Northeast 230 265 8,000 -308 Level Los Angeles Center
Mon 12:48:19 PM 35.9839 -114.8808 54° Northeast 212 244 7,400 -709 Descending Los Angeles Center
Mon 12:49:25 PM 36.0306 -114.8508 27° Northeast 164 189 6,500 -677 Descending Los Angeles Center
Mon 12:50:23 PM 36.0433 -114.8942 290° West 178 205 6,000 -850 Descending Los Angeles Center
Mon 12:51:25 PM 36.0650 -114.9617 292° West 175 201 4,800 -1,113 Descending Los Angeles Center
Mon 12:52:27 PM 36.0739 -115.0200 281° West 160 184 3,700 -878 Descending Los Angeles Center
Mon 12:53:28 PM 36.0736 -115.0678 270° West 144 166 3,000 -738 Descending Los Angeles Center
Mon 12:54:29 PM 36.0733 -115.1158 270° West 138 159 2,200 -787 Descending Los Angeles Center
Mon 12:56:00 PM 36.0667 -115.1500 270° West  Level FlightAware Approximate

Login

Don't have an account? Register now (free) for customized features, flight alerts, and more!